Time;durP1;ratioP1;P1;durP2;ratioP2;P2;SDS_P1;SDS_P2;PMS_P1;PMS_P2;Temp;Humidity;BMP_temperature;BMP_pressure;BME280_temperature;BME280_humidity;BME280_pressure;Samples;Min_cycle;Max_cycle;Signal;HPM_P1;HPM_P2
2023/10/05 00:03:38;;;;;;;6.35;2.90;;;;;;;;;;4956715;28;20042;-78
2023/10/05 00:06:13;;;;;;;9.07;3.35;;;;;;;;;;4939712;29;20502;-78
2023/10/05 00:08:40;;;;;;;9.63;3.47;;;;;;;;;;4955729;28;20551;-79
2023/10/05 00:11:06;;;;;;;11.35;3.83;;;;;;;;;;4955998;28;20505;-79
2023/10/05 00:13:34;;;;;;;11.88;3.40;;;;;;;;;;4940001;29;20094;-77
2023/10/05 00:16:00;;;;;;;12.55;4.00;;;;;;;;;;4943067;29;20101;-79
2023/10/05 00:18:35;;;;;;;9.48;3.58;;;;;;;;;;4944580;29;20031;-79
2023/10/05 00:21:01;;;;;;;10.57;3.50;;;;;;;;;;4943195;29;20042;-78
2023/10/05 00:23:28;;;;;;;7.22;3.03;;;;;;;;;;4941602;29;20399;-79
2023/10/05 00:25:55;;;;;;;11.98;3.90;;;;;;;;;;4958047;28;20041;-79
2023/10/05 00:28:24;;;;;;;7.55;3.03;;;;;;;;;;4943748;29;20130;-79
2023/10/05 00:30:52;;;;;;;7.50;3.00;;;;;;;;;;4958135;28;20087;-79
2023/10/05 00:33:18;;;;;;;10.10;3.70;;;;;;;;;;4942603;29;20105;-80
2023/10/05 00:35:43;;;;;;;12.98;3.50;;;;;;;;;;4959319;29;20043;-79
2023/10/05 00:38:14;;;;;;;9.32;2.88;;;;;;;;;;4942105;29;20039;-78
2023/10/05 00:40:43;;;;;;;7.85;2.75;;;;;;;;;;4942716;29;20115;-79
2023/10/05 00:43:21;;;;;;;11.48;3.50;;;;;;;;;;4956901;28;20039;-79
2023/10/05 00:45:47;;;;;;;9.97;3.10;;;;;;;;;;4955640;29;20035;-78
2023/10/05 00:48:47;;;;;;;;;;;;;;;;;;;;;
2023/10/05 00:51:00;;;;;;;8.02;2.80;;;;;;;;;;4956667;28;20038;-78
2023/10/05 00:53:29;;;;;;;11.88;3.15;;;;;;;;;;4939009;29;20035;-76
2023/10/05 00:56:11;;;;;;;10.27;3.15;;;;;;;;;;4923699;29;20041;-77
2023/10/05 00:58:42;;;;;;;11.13;2.95;;;;;;;;;;4939000;29;20123;-77
2023/10/05 01:01:14;;;;;;;9.45;3.45;;;;;;;;;;4938922;29;20039;-79
2023/10/05 01:09:12;;;;;;;11.13;3.03;;;;;;;;;;4957355;28;20059;-78
2023/10/05 01:11:43;;;;;;;9.23;2.90;;;;;;;;;;4956495;28;20089;-77
2023/10/05 01:14:09;;;;;;;8.50;3.10;;;;;;;;;;4956366;28;20035;-78
2023/10/05 01:16:35;;;;;;;8.80;3.45;;;;;;;;;;4956043;29;20038;-77
2023/10/05 01:19:07;;;;;;;9.73;3.38;;;;;;;;;;4960153;29;20035;-79
2023/10/05 01:21:37;;;;;;;9.88;3.38;;;;;;;;;;4960126;28;20063;-79
2023/10/05 01:24:03;;;;;;;9.77;3.83;;;;;;;;;;4945020;28;20142;-79
2023/10/05 01:26:28;;;;;;;10.93;3.75;;;;;;;;;;4962389;28;20050;-78
2023/10/05 01:28:54;;;;;;;9.88;3.13;;;;;;;;;;4962188;29;20035;-77
2023/10/05 01:31:21;;;;;;;9.50;2.90;;;;;;;;;;4947230;29;20043;-78
2023/10/05 01:33:47;;;;;;;10.52;3.00;;;;;;;;;;4960918;28;20039;-79
2023/10/05 01:36:16;;;;;;;7.63;3.88;;;;;;;;;;4957342;29;20031;-78
2023/10/05 01:38:41;;;;;;;;;;;;;;;;;;4941538;29;20046;-77
2023/10/05 01:41:07;;;;;;;10.50;3.53;;;;;;;;;;4957715;28;19910;-78
2023/10/05 01:43:40;;;;;;;9.60;3.03;;;;;;;;;;4959020;28;20041;-78
2023/10/05 01:46:10;;;;;;;11.18;3.08;;;;;;;;;;4971074;28;20078;-79
2023/10/05 01:48:36;;;;;;;11.65;4.22;;;;;;;;;;4954642;28;20058;-78
2023/10/05 01:51:14;;;;;;;8.68;3.08;;;;;;;;;;4921896;28;20062;-78
2023/10/05 01:53:40;;;;;;;14.37;3.87;;;;;;;;;;4953464;28;20031;-78
2023/10/05 01:56:22;;;;;;;9.60;3.30;;;;;;;;;;4955096;28;20035;-76
2023/10/05 01:58:52;;;;;;;8.65;3.40;;;;;;;;;;4953709;28;20039;-76
2023/10/05 02:01:20;;;;;;;9.73;3.20;;;;;;;;;;4953962;29;20039;-78
2023/10/05 02:03:48;;;;;;;10.15;3.08;;;;;;;;;;4953212;28;20027;-78
2023/10/05 02:06:15;;;;;;;11.77;3.53;;;;;;;;;;4953542;28;20042;-76
2023/10/05 02:08:42;;;;;;;13.77;3.20;;;;;;;;;;4954914;28;20427;-76
2023/10/05 02:11:17;;;;;;;9.88;3.22;;;;;;;;;;4953655;28;20493;-78
2023/10/05 02:13:43;;;;;;;13.55;3.33;;;;;;;;;;4922048;29;20031;-77
2023/10/05 02:16:14;;;;;;;8.20;3.00;;;;;;;;;;4953458;28;20114;-78
2023/10/05 02:18:40;;;;;;;7.78;2.92;;;;;;;;;;4937696;29;20198;-77
2023/10/05 02:21:07;;;;;;;12.43;3.40;;;;;;;;;;4922278;29;20531;-76
2023/10/05 02:23:41;;;;;;;11.25;3.25;;;;;;;;;;4937780;29;20042;-78
2023/10/05 02:28:51;;;;;;;11.13;3.58;;;;;;;;;;4937391;29;20031;-77
2023/10/05 02:31:20;;;;;;;13.73;4.15;;;;;;;;;;4937669;29;20035;-77
2023/10/05 02:33:46;;;;;;;8.02;3.10;;;;;;;;;;4953711;28;20043;-76
2023/10/05 02:36:13;;;;;;;11.98;3.42;;;;;;;;;;4953822;28;20039;-78
2023/10/05 02:38:47;;;;;;;10.27;3.60;;;;;;;;;;4954046;28;20042;-78
2023/10/05 02:41:13;;;;;;;11.30;3.13;;;;;;;;;;4953547;28;20038;-77
2023/10/05 02:43:40;;;;;;;15.98;3.60;;;;;;;;;;4953187;28;20094;-77
2023/10/05 02:46:11;;;;;;;9.95;3.17;;;;;;;;;;4937631;29;20031;-78
2023/10/05 02:48:39;;;;;;;10.75;3.42;;;;;;;;;;4953912;28;20035;-77
2023/10/05 02:51:05;;;;;;;12.27;3.67;;;;;;;;;;4953797;29;20113;-78
2023/10/05 02:53:56;;;;;;;14.52;3.45;;;;;;;;;;4954921;28;20106;-78
2023/10/05 02:56:29;;;;;;;10.50;3.28;;;;;;;;;;4938222;29;20066;-78
2023/10/05 02:58:57;;;;;;;10.35;3.80;;;;;;;;;;4954218;28;20098;-77
2023/10/05 03:01:23;;;;;;;13.38;4.20;;;;;;;;;;4937886;29;20039;-78
2023/10/05 03:03:51;;;;;;;14.38;3.50;;;;;;;;;;4922275;28;20099;-78
2023/10/05 03:06:17;;;;;;;12.18;3.72;;;;;;;;;;4938026;29;20034;-79
2023/10/05 03:08:44;;;;;;;10.82;3.58;;;;;;;;;;4938150;29;20114;-78
2023/10/05 03:11:10;;;;;;;11.68;3.75;;;;;;;;;;4954551;28;20046;-79
2023/10/05 03:13:38;;;;;;;12.20;4.22;;;;;;;;;;4955931;28;20111;-79
2023/10/05 03:16:09;;;;;;;12.30;3.38;;;;;;;;;;4925815;29;20035;-79
2023/10/05 03:18:37;;;;;;;11.45;3.22;;;;;;;;;;4957967;29;20035;-78
2023/10/05 03:21:09;;;;;;;10.80;3.35;;;;;;;;;;4958996;29;20075;-79
2023/10/05 03:23:36;;;;;;;11.95;3.65;;;;;;;;;;4945030;29;20027;-78
2023/10/05 03:26:07;;;;;;;10.57;3.45;;;;;;;;;;4962405;28;20031;-78
2023/10/05 03:28:35;;;;;;;13.95;4.45;;;;;;;;;;4945949;29;20036;-78
2023/10/05 03:31:06;;;;;;;11.20;3.80;;;;;;;;;;4962082;28;20527;-76
2023/10/05 03:33:35;;;;;;;11.15;3.40;;;;;;;;;;4962965;28;20090;-78
2023/10/05 03:36:06;;;;;;;11.63;3.60;;;;;;;;;;4947653;29;20046;-77
2023/10/05 03:38:35;;;;;;;15.80;3.65;;;;;;;;;;4948639;29;20039;-79
2023/10/05 03:41:04;;;;;;;;;;;;;;;;;;4947829;29;20159;-77
2023/10/05 03:43:31;;;;;;;10.20;3.67;;;;;;;;;;4962148;28;19950;-77
2023/10/05 03:45:57;;;;;;;12.40;4.78;;;;;;;;;;4961320;28;20035;-77
2023/10/05 03:48:26;;;;;;;11.20;3.63;;;;;;;;;;4943789;29;20039;-78
2023/10/05 03:50:53;;;;;;;14.07;4.05;;;;;;;;;;4959165;28;20030;-77
2023/10/05 03:53:18;;;;;;;14.73;4.15;;;;;;;;;;4941968;29;20403;-76
2023/10/05 03:55:47;;;;;;;18.55;4.32;;;;;;;;;;4926769;29;20034;-77
2023/10/05 03:58:12;;;;;;;13.63;4.57;;;;;;;;;;4958438;28;20131;-76
2023/10/05 04:00:40;;;;;;;11.50;3.67;;;;;;;;;;4958499;28;20047;-77
2023/10/05 04:03:06;;;;;;;10.10;4.05;;;;;;;;;;4957870;28;20110;-77
2023/10/05 04:05:33;;;;;;;8.77;3.40;;;;;;;;;;4942649;29;20031;-78
2023/10/05 04:08:10;;;;;;;13.77;4.00;;;;;;;;;;4959019;28;20154;-77
2023/10/05 04:10:46;;;;;;;13.87;4.47;;;;;;;;;;4927046;28;20103;-78
2023/10/05 04:13:16;;;;;;;14.13;3.83;;;;;;;;;;4957295;28;20272;-78
2023/10/05 04:15:42;;;;;;;13.23;4.10;;;;;;;;;;4941124;29;20027;-77
2023/10/05 04:18:11;;;;;;;12.57;4.40;;;;;;;;;;4940650;29;20271;-76
2023/10/05 04:20:37;;;;;;;13.50;4.40;;;;;;;;;;4978277;23;20043;-78
2023/10/05 04:23:03;;;;;;;15.07;4.05;;;;;;;;;;4975838;28;20050;-77
2023/10/05 04:25:29;;;;;;;10.82;3.53;;;;;;;;;;4977140;28;20070;-78
2023/10/05 04:27:55;;;;;;;12.32;4.47;;;;;;;;;;4975940;28;20483;-78
2023/10/05 04:30:21;;;;;;;15.75;4.68;;;;;;;;;;4977620;28;20034;-77
2023/10/05 04:32:48;;;;;;;16.75;4.03;;;;;;;;;;4976524;28;20023;-77
2023/10/05 04:35:23;;;;;;;14.43;4.95;;;;;;;;;;4977314;28;20055;-77
2023/10/05 04:37:49;;;;;;;18.25;4.22;;;;;;;;;;4981611;28;20073;-77
2023/10/05 04:40:17;;;;;;;11.43;3.95;;;;;;;;;;4952474;28;20386;-76
2023/10/05 04:42:43;;;;;;;11.90;4.07;;;;;;;;;;4981699;28;20046;-78
2023/10/05 04:45:14;;;;;;;14.07;3.90;;;;;;;;;;4985928;28;20030;-78
2023/10/05 04:47:40;;;;;;;15.02;3.95;;;;;;;;;;4960498;28;20405;-78
2023/10/05 04:50:15;;;;;;;13.05;4.38;;;;;;;;;;4976888;28;20033;-77
2023/10/05 04:52:41;;;;;;;15.52;3.95;;;;;;;;;;4976531;28;20110;-77
2023/10/05 04:55:23;;;;;;;11.68;4.05;;;;;;;;;;4991310;28;20086;-77
2023/10/05 04:58:42;;;;;;;16.10;4.47;;;;;;;;;;4959432;28;20041;-77
2023/10/05 05:06:00;;;;;;;13.52;4.13;;;;;;;;;;4976296;28;20112;-77
2023/10/05 05:08:26;;;;;;;15.70;4.60;;;;;;;;;;4959721;28;20037;-78
2023/10/05 05:10:52;;;;;;;15.32;4.45;;;;;;;;;;4977263;28;20055;-78
2023/10/05 05:13:22;;;;;;;17.02;4.75;;;;;;;;;;4976279;28;20082;-78
2023/10/05 05:15:47;;;;;;;14.05;3.85;;;;;;;;;;4977164;28;20047;-78
2023/10/05 05:18:14;;;;;;;14.25;4.47;;;;;;;;;;4979404;28;20050;-78
2023/10/05 05:20:47;;;;;;;12.00;3.78;;;;;;;;;;4996241;28;20044;-78
2023/10/05 05:23:13;;;;;;;11.57;4.65;;;;;;;;;;4969556;28;20042;-78
2023/10/05 05:25:39;;;;;;;17.13;4.68;;;;;;;;;;4987837;28;20556;-78
2023/10/05 05:28:05;;;;;;;17.13;3.78;;;;;;;;;;4986526;28;20126;-78
2023/10/05 05:30:36;;;;;;;14.48;5.25;;;;;;;;;;4976529;28;20054;-78
2023/10/05 05:33:11;;;;;;;15.52;4.20;;;;;;;;;;4989587;28;20086;-78
2023/10/05 05:35:39;;;;;;;15.27;4.65;;;;;;;;;;4973092;28;20031;-78
2023/10/05 05:38:09;;;;;;;13.45;4.18;;;;;;;;;;4982753;28;20034;-77
2023/10/05 05:40:36;;;;;;;13.73;4.30;;;;;;;;;;4978659;28;20041;-77
2023/10/05 05:43:08;;;;;;;19.42;4.30;;;;;;;;;;4977065;28;20442;-77
2023/10/05 05:45:42;;;;;;;12.20;4.10;;;;;;;;;;4976937;28;20041;-78
2023/10/05 05:48:09;;;;;;;12.82;3.85;;;;;;;;;;4959246;28;20031;-77
2023/10/05 05:50:39;;;;;;;13.85;4.38;;;;;;;;;;4961710;28;20031;-79
2023/10/05 05:53:06;;;;;;;17.27;4.38;;;;;;;;;;4964758;28;20518;-78
2023/10/05 05:55:31;;;;;;;13.32;3.97;;;;;;;;;;4983038;28;20042;-78
2023/10/05 05:57:59;;;;;;;13.50;3.78;;;;;;;;;;4988847;28;20026;-79
2023/10/05 06:00:28;;;;;;;13.80;3.75;;;;;;;;;;5006235;28;20035;-78
2023/10/05 06:02:53;;;;;;;;;;;;;;;;;;5006517;28;20038;-79
2023/10/05 06:05:22;;;;;;;14.82;3.80;;;;;;;;;;4987787;28;19910;-78
2023/10/05 06:07:50;;;;;;;12.90;3.85;;;;;;;;;;4982178;28;20237;-77
2023/10/05 06:10:15;;;;;;;11.63;4.25;;;;;;;;;;4976013;28;20031;-77
2023/10/05 06:12:42;;;;;;;15.50;4.78;;;;;;;;;;4959005;28;20077;-77
2023/10/05 06:15:09;;;;;;;11.93;3.72;;;;;;;;;;4975725;28;20034;-77
2023/10/05 06:17:35;;;;;;;13.05;5.20;;;;;;;;;;4974759;28;20027;-77
2023/10/05 06:20:13;;;;;;;18.95;4.60;;;;;;;;;;4943282;28;20042;-77
2023/10/05 06:22:41;;;;;;;17.20;4.53;;;;;;;;;;4975396;28;20038;-78
2023/10/05 06:25:09;;;;;;;11.00;3.57;;;;;;;;;;4959383;28;20034;-77
2023/10/05 06:27:37;;;;;;;12.57;3.95;;;;;;;;;;4975112;28;20280;-77
2023/10/05 06:30:09;;;;;;;13.27;4.05;;;;;;;;;;4961003;28;20070;-78
2023/10/05 06:32:35;;;;;;;12.20;4.13;;;;;;;;;;4960973;28;20034;-78
2023/10/05 06:35:00;;;;;;;18.15;4.25;;;;;;;;;;4974881;28;20023;-78
2023/10/05 06:37:26;;;;;;;12.75;4.07;;;;;;;;;;4943588;28;20066;-78
2023/10/05 06:39:55;;;;;;;12.50;3.75;;;;;;;;;;4976929;28;20109;-77
2023/10/05 06:42:20;;;;;;;;;;;;;;;;;;4977105;28;20033;-77
2023/10/05 06:44:48;;;;;;;11.85;3.70;;;;;;;;;;4992712;28;19910;-78
2023/10/05 06:47:35;;;;;;;14.02;4.25;;;;;;;;;;4960848;28;20031;-77
2023/10/05 06:50:00;;;;;;;17.23;4.10;;;;;;;;;;4977588;28;20027;-78
2023/10/05 06:52:26;;;;;;;15.02;4.00;;;;;;;;;;4981424;28;20506;-77
2023/10/05 06:54:52;;;;;;;12.65;4.60;;;;;;;;;;4966083;28;20031;-78
2023/10/05 06:57:17;;;;;;;11.82;3.53;;;;;;;;;;4982156;28;20090;-77
2023/10/05 06:59:43;;;;;;;11.80;4.00;;;;;;;;;;4985174;28;20150;-77
2023/10/05 07:02:09;;;;;;;16.10;4.03;;;;;;;;;;4970105;28;20030;-78
2023/10/05 07:04:35;;;;;;;14.40;4.30;;;;;;;;;;4985748;28;20045;-78
2023/10/05 07:07:03;;;;;;;16.17;4.60;;;;;;;;;;4988493;28;20031;-77
2023/10/05 07:09:30;;;;;;;11.82;4.20;;;;;;;;;;4965931;28;20034;-78
2023/10/05 07:11:55;;;;;;;13.65;3.78;;;;;;;;;;4979642;28;20042;-78
2023/10/05 07:14:21;;;;;;;15.68;3.97;;;;;;;;;;4995353;28;20418;-77
2023/10/05 07:16:47;;;;;;;17.55;3.85;;;;;;;;;;4978135;28;20039;-78
2023/10/05 07:19:13;;;;;;;13.52;3.35;;;;;;;;;;4977457;28;20458;-77
2023/10/05 07:21:38;;;;;;;13.63;4.60;;;;;;;;;;4962553;28;20037;-78
2023/10/05 07:24:04;;;;;;;12.23;3.72;;;;;;;;;;4948961;28;20073;-77
2023/10/05 07:26:30;;;;;;;13.68;3.85;;;;;;;;;;5003240;28;20031;-77
2023/10/05 07:28:55;;;;;;;17.23;5.15;;;;;;;;;;4988049;28;20041;-77
2023/10/05 07:31:24;;;;;;;20.42;3.92;;;;;;;;;;4963206;28;20077;-79
2023/10/05 07:33:50;;;;;;;;;;;;;;;;;;4979750;28;20034;-78
2023/10/05 07:36:16;;;;;;;11.95;4.00;;;;;;;;;;4979568;28;19913;-77
2023/10/05 07:38:41;;;;;;;14.82;4.35;;;;;;;;;;4980003;28;20113;-78
2023/10/05 07:41:07;;;;;;;10.10;3.40;;;;;;;;;;4978313;28;20035;-79
2023/10/05 07:43:34;;;;;;;19.02;4.00;;;;;;;;;;4945590;28;20062;-77
2023/10/05 07:46:04;;;;;;;9.93;4.13;;;;;;;;;;4978752;28;20463;-78
2023/10/05 07:48:31;;;;;;;13.02;3.38;;;;;;;;;;4981147;28;20031;-77
2023/10/05 07:50:57;;;;;;;12.95;3.92;;;;;;;;;;5000530;28;20031;-77
2023/10/05 07:53:22;;;;;;;18.80;4.20;;;;;;;;;;4986117;28;20038;-78
2023/10/05 07:55:49;;;;;;;13.25;3.70;;;;;;;;;;4986376;28;20098;-79
2023/10/05 07:58:16;;;;;;;10.87;3.97;;;;;;;;;;5002001;28;20094;-78
2023/10/05 08:00:42;;;;;;;11.27;4.28;;;;;;;;;;4988215;28;20038;-78
2023/10/05 08:03:09;;;;;;;10.38;3.50;;;;;;;;;;4987799;28;20039;-77
2023/10/05 08:05:35;;;;;;;13.23;3.88;;;;;;;;;;4987681;28;20038;-76
2023/10/05 08:08:02;;;;;;;10.50;3.50;;;;;;;;;;4987510;28;20030;-76
2023/10/05 08:10:28;;;;;;;20.98;4.15;;;;;;;;;;4961150;28;20027;-76
2023/10/05 08:12:53;;;;;;;12.43;4.03;;;;;;;;;;4976931;28;20026;-76
2023/10/05 08:15:19;;;;;;;10.93;3.80;;;;;;;;;;4978811;28;20038;-79
2023/10/05 08:17:46;;;;;;;11.35;3.65;;;;;;;;;;4977516;28;20126;-77
2023/10/05 08:20:12;;;;;;;10.57;3.58;;;;;;;;;;4976601;28;20368;-77
2023/10/05 08:22:38;;;;;;;14.70;3.63;;;;;;;;;;4977996;28;20038;-77
2023/10/05 08:25:12;;;;;;;11.23;3.97;;;;;;;;;;4983518;28;20054;-77
2023/10/05 08:27:39;;;;;;;12.13;3.35;;;;;;;;;;4981092;28;20031;-77
2023/10/05 08:30:10;;;;;;;11.65;3.30;;;;;;;;;;4981923;28;20026;-77
2023/10/05 08:32:37;;;;;;;11.15;3.60;;;;;;;;;;4984274;28;20039;-78
2023/10/05 08:35:16;;;;;;;10.48;3.65;;;;;;;;;;4981874;28;20039;-77
2023/10/05 08:37:42;;;;;;;13.50;3.22;;;;;;;;;;4995147;28;20407;-79
2023/10/05 08:40:37;;;;;;;12.05;3.15;;;;;;;;;;4981149;28;20031;-78
2023/10/05 08:43:16;;;;;;;9.32;3.08;;;;;;;;;;4982613;28;20030;-78
2023/10/05 08:45:51;;;;;;;12.20;2.75;;;;;;;;;;4998148;28;20098;-79
2023/10/05 08:48:20;;;;;;;10.32;3.40;;;;;;;;;;4982364;28;20034;-79
2023/10/05 08:50:46;;;;;;;;;;;;;;;;;;4981911;28;20031;-78
2023/10/05 08:53:13;;;;;;;12.10;3.50;;;;;;;;;;4978157;28;20405;-78
2023/10/05 08:55:39;;;;;;;15.57;3.13;;;;;;;;;;4976124;28;20033;-78
2023/10/05 08:58:06;;;;;;;13.30;3.05;;;;;;;;;;4977112;28;20093;-78
2023/10/05 09:00:40;;;;;;;12.32;3.22;;;;;;;;;;4977301;28;20049;-77
2023/10/05 09:03:28;;;;;;;12.32;3.50;;;;;;;;;;4976231;28;20035;-78
2023/10/05 09:06:12;;;;;;;12.48;3.88;;;;;;;;;;4978637;28;20396;-78
2023/10/05 09:08:43;;;;;;;10.43;3.75;;;;;;;;;;4976163;28;20050;-77
2023/10/05 09:11:09;;;;;;;11.57;2.95;;;;;;;;;;4960247;28;20035;-77
2023/10/05 09:13:44;;;;;;;11.93;2.60;;;;;;;;;;4975765;28;20066;-77
2023/10/05 09:16:15;;;;;;;12.40;3.05;;;;;;;;;;4977445;28;20510;-79
2023/10/05 09:18:47;;;;;;;9.18;2.92;;;;;;;;;;4960200;28;20454;-77
2023/10/05 09:21:18;;;;;;;11.77;3.42;;;;;;;;;;4980476;28;20812;-77
2023/10/05 09:23:43;;;;;;;11.57;3.10;;;;;;;;;;4960220;28;20041;-78
2023/10/05 09:26:37;;;;;;;8.65;2.88;;;;;;;;;;4992546;28;20035;-77
2023/10/05 09:29:22;;;;;;;12.05;3.28;;;;;;;;;;4975405;28;20136;-77
2023/10/05 09:31:53;;;;;;;12.98;3.13;;;;;;;;;;4977392;28;20470;-78
2023/10/05 09:34:44;;;;;;;11.98;2.92;;;;;;;;;;4978464;28;20058;-78
2023/10/05 09:37:10;;;;;;;10.48;3.42;;;;;;;;;;4965407;28;20090;-77
2023/10/05 09:40:22;;;;;;;13.68;3.08;;;;;;;;;;4983894;28;20058;-77
2023/10/05 09:42:27;;;;;;;9.23;3.40;;;;;;;;;;4985366;28;20061;-77
2023/10/05 09:44:54;;;;;;;7.53;2.97;;;;;;;;;;4985012;28;20042;-76
2023/10/05 09:47:21;;;;;;;11.02;2.55;;;;;;;;;;4966703;28;20129;-77
2023/10/05 09:49:50;;;;;;;10.20;3.22;;;;;;;;;;4964724;28;20030;-77
2023/10/05 09:52:19;;;;;;;12.27;2.95;;;;;;;;;;4977762;28;20055;-77
2023/10/05 09:54:47;;;;;;;8.70;2.47;;;;;;;;;;4976176;28;20035;-77
2023/10/05 09:57:16;;;;;;;8.35;2.58;;;;;;;;;;4975278;28;20093;-77
2023/10/05 09:59:44;;;;;;;;;;;;;;;;;;4943090;28;20061;-77
2023/10/05 10:02:17;;;;;;;11.35;2.85;;;;;;;;;;4974635;28;19996;-77
2023/10/05 10:04:46;;;;;;;10.13;3.35;;;;;;;;;;4957824;28;20092;-77
2023/10/05 10:07:22;;;;;;;12.38;2.45;;;;;;;;;;4975249;28;20406;-76
2023/10/05 10:09:53;;;;;;;8.25;2.60;;;;;;;;;;4942350;28;20101;-77
2023/10/05 10:12:26;;;;;;;9.68;2.90;;;;;;;;;;4975232;28;20125;-78
2023/10/05 10:14:53;;;;;;;8.20;2.80;;;;;;;;;;4977646;28;20487;-78
2023/10/05 10:17:27;;;;;;;8.65;2.72;;;;;;;;;;4978788;28;20506;-76
2023/10/05 10:20:28;;;;;;;12.15;2.90;;;;;;;;;;4996076;23;20073;-77
2023/10/05 10:23:06;;;;;;;11.57;2.92;;;;;;;;;;4991362;28;20034;-76
2023/10/05 10:25:41;;;;;;;9.88;2.55;;;;;;;;;;4990981;28;20031;-78
2023/10/05 10:28:15;;;;;;;9.27;2.65;;;;;;;;;;4993489;28;20030;-76
2023/10/05 10:31:06;;;;;;;9.98;3.22;;;;;;;;;;4994522;28;20150;-78
2023/10/05 10:33:35;;;;;;;11.02;2.53;;;;;;;;;;4993688;28;20316;-76
2023/10/05 10:36:01;;;;;;;11.40;2.47;;;;;;;;;;4993177;28;20487;-76
2023/10/05 10:38:27;;;;;;;13.27;2.75;;;;;;;;;;4995289;28;20037;-77
2023/10/05 10:41:15;;;;;;;10.85;2.78;;;;;;;;;;4995476;28;20367;-77
2023/10/05 10:43:48;;;;;;;10.90;2.95;;;;;;;;;;4993859;28;20045;-77
2023/10/05 10:46:21;;;;;;;11.80;2.63;;;;;;;;;;4992746;28;20034;-76
2023/10/05 10:48:53;;;;;;;8.82;2.70;;;;;;;;;;4993073;28;20493;-76
2023/10/05 10:51:22;;;;;;;10.18;3.00;;;;;;;;;;4994280;28;20042;-77
2023/10/05 10:53:51;;;;;;;12.07;3.15;;;;;;;;;;4993318;28;20401;-76
2023/10/05 10:56:21;;;;;;;14.10;4.57;;;;;;;;;;4993125;28;20034;-77
2023/10/05 10:58:56;;;;;;;11.52;2.58;;;;;;;;;;4992873;28;20034;-75
2023/10/05 11:01:28;;;;;;;8.82;2.30;;;;;;;;;;4992658;28;20583;-76
2023/10/05 11:03:55;;;;;;;9.55;3.63;;;;;;;;;;4993189;28;20026;-76
2023/10/05 11:06:26;;;;;;;9.82;2.45;;;;;;;;;;4993406;28;20041;-76
2023/10/05 11:08:51;;;;;;;9.45;2.58;;;;;;;;;;4991918;28;20533;-76
2023/10/05 11:11:20;;;;;;;11.27;3.78;;;;;;;;;;4992515;28;20026;-75
2023/10/05 11:13:49;;;;;;;9.10;2.70;;;;;;;;;;4994338;28;20046;-75
2023/10/05 11:16:15;;;;;;;13.27;2.75;;;;;;;;;;4993322;28;20043;-77
2023/10/05 11:18:50;;;;;;;11.80;3.10;;;;;;;;;;4994283;28;20038;-76
2023/10/05 11:21:17;;;;;;;11.18;2.60;;;;;;;;;;4995625;28;20038;-76
2023/10/05 11:23:55;;;;;;;16.77;3.40;;;;;;;;;;4980661;28;20046;-77
2023/10/05 11:26:33;;;;;;;8.80;2.25;;;;;;;;;;4981292;28;20133;-76
2023/10/05 11:29:15;;;;;;;13.25;2.72;;;;;;;;;;4982396;28;20030;-77
2023/10/05 11:31:43;;;;;;;10.68;2.95;;;;;;;;;;4996143;28;20027;-78
2023/10/05 11:34:12;;;;;;;12.13;2.83;;;;;;;;;;4995262;28;20057;-76
2023/10/05 11:36:44;;;;;;;15.75;3.42;;;;;;;;;;4996675;28;20026;-76
2023/10/05 11:39:22;;;;;;;9.35;3.22;;;;;;;;;;4995620;28;20110;-76
2023/10/05 11:41:47;;;;;;;9.48;3.00;;;;;;;;;;4997042;28;20041;-77
2023/10/05 11:44:20;;;;;;;7.88;3.15;;;;;;;;;;4979074;28;20406;-75
2023/10/05 11:46:46;;;;;;;10.13;3.05;;;;;;;;;;4995071;28;20490;-77
2023/10/05 11:49:13;;;;;;;10.00;3.22;;;;;;;;;;4997122;28;20080;-77
2023/10/05 11:51:41;;;;;;;8.93;2.70;;;;;;;;;;4995389;28;20085;-77
2023/10/05 11:54:10;;;;;;;7.47;2.30;;;;;;;;;;4996387;28;20045;-76
2023/10/05 11:56:38;;;;;;;10.25;2.78;;;;;;;;;;4996921;28;20026;-77
2023/10/05 11:59:05;;;;;;;13.38;2.83;;;;;;;;;;4997926;28;20041;-77
2023/10/05 12:01:32;;;;;;;10.65;2.63;;;;;;;;;;4997862;28;20087;-77
2023/10/05 12:03:58;;;;;;;10.43;2.83;;;;;;;;;;4999790;28;20421;-78
2023/10/05 12:06:25;;;;;;;12.23;3.22;;;;;;;;;;4999237;28;20121;-77
2023/10/05 12:08:54;;;;;;;8.52;3.15;;;;;;;;;;5000824;28;20026;-76
2023/10/05 12:11:24;;;;;;;8.73;2.30;;;;;;;;;;5003948;28;20037;-76
2023/10/05 12:13:56;;;;;;;8.80;2.45;;;;;;;;;;5005287;28;20022;-76
2023/10/05 12:16:23;;;;;;;6.45;2.35;;;;;;;;;;5008914;28;20042;-76
2023/10/05 12:18:50;;;;;;;11.93;2.60;;;;;;;;;;5008734;28;20030;-77
2023/10/05 12:21:18;;;;;;;9.00;2.70;;;;;;;;;;5001366;28;20045;-77
2023/10/05 12:23:44;;;;;;;11.65;2.50;;;;;;;;;;4997939;28;20026;-77
2023/10/05 12:26:10;;;;;;;11.20;2.47;;;;;;;;;;4996903;28;20045;-76
2023/10/05 12:28:36;;;;;;;11.18;2.50;;;;;;;;;;4997273;28;20466;-77
2023/10/05 12:31:02;;;;;;;13.05;2.75;;;;;;;;;;4996593;28;20081;-77
2023/10/05 12:33:28;;;;;;;7.95;2.47;;;;;;;;;;4980042;28;20026;-77
2023/10/05 12:35:54;;;;;;;11.60;2.83;;;;;;;;;;4995139;28;20040;-78
2023/10/05 12:38:21;;;;;;;9.60;2.72;;;;;;;;;;4996520;28;20034;-78
2023/10/05 12:40:47;;;;;;;8.93;2.22;;;;;;;;;;4996939;28;20533;-76
2023/10/05 12:43:16;;;;;;;9.25;2.55;;;;;;;;;;4996268;28;20556;-77
2023/10/05 12:45:43;;;;;;;8.73;2.40;;;;;;;;;;5009437;28;20457;-77
2023/10/05 12:48:09;;;;;;;8.13;2.42;;;;;;;;;;5009104;28;20085;-77
2023/10/05 12:50:37;;;;;;;7.63;2.45;;;;;;;;;;5008945;28;20031;-76
2023/10/05 12:53:03;;;;;;;11.02;2.50;;;;;;;;;;4989831;28;20058;-76
2023/10/05 12:55:29;;;;;;;10.45;2.40;;;;;;;;;;5009807;28;20081;-78
2023/10/05 12:57:55;;;;;;;7.40;2.45;;;;;;;;;;4996736;28;20030;-77
2023/10/05 13:00:22;;;;;;;10.43;2.42;;;;;;;;;;4978659;28;20038;-78
2023/10/05 13:02:51;;;;;;;12.00;3.17;;;;;;;;;;4996137;28;20034;-77
2023/10/05 13:05:18;;;;;;;9.93;2.80;;;;;;;;;;4995536;28;20117;-77
2023/10/05 13:07:44;;;;;;;9.43;3.20;;;;;;;;;;4995223;28;20027;-78
2023/10/05 13:10:21;;;;;;;8.88;2.78;;;;;;;;;;5007495;28;20023;-77
2023/10/05 13:12:50;;;;;;;7.35;2.85;;;;;;;;;;5008361;28;20030;-77
2023/10/05 13:15:19;;;;;;;9.00;2.75;;;;;;;;;;4994898;28;20062;-78
2023/10/05 13:17:46;;;;;;;8.38;2.90;;;;;;;;;;4996442;28;20390;-75
2023/10/05 13:20:15;;;;;;;9.20;2.25;;;;;;;;;;4996554;28;20049;-78
2023/10/05 13:22:44;;;;;;;8.18;2.70;;;;;;;;;;4995928;28;20511;-78
2023/10/05 13:25:10;;;;;;;9.60;2.55;;;;;;;;;;4993998;28;20031;-77
2023/10/05 13:27:36;;;;;;;8.30;2.75;;;;;;;;;;4977558;28;20041;-77
2023/10/05 13:30:03;;;;;;;7.90;2.25;;;;;;;;;;4978614;28;20478;-76
2023/10/05 13:32:31;;;;;;;12.77;2.65;;;;;;;;;;4995682;28;20022;-77
2023/10/05 13:34:57;;;;;;;11.85;3.00;;;;;;;;;;4994376;28;20022;-76
2023/10/05 13:37:23;;;;;;;9.18;2.72;;;;;;;;;;4995171;28;20097;-78
2023/10/05 13:39:48;;;;;;;13.88;2.80;;;;;;;;;;4994218;28;20030;-78
2023/10/05 13:42:25;;;;;;;7.75;2.22;;;;;;;;;;4994219;28;20030;-78
2023/10/05 13:44:51;;;;;;;7.80;2.35;;;;;;;;;;4995486;28;20026;-78
2023/10/05 13:47:17;;;;;;;12.35;2.60;;;;;;;;;;4978435;28;20431;-76
2023/10/05 13:49:51;;;;;;;13.43;3.05;;;;;;;;;;4995301;28;20489;-76
2023/10/05 13:52:23;;;;;;;9.45;2.60;;;;;;;;;;4993516;28;20026;-77
2023/10/05 13:54:48;;;;;;;10.70;3.00;;;;;;;;;;4993426;28;20149;-77
2023/10/05 13:57:15;;;;;;;7.25;2.25;;;;;;;;;;4993873;28;20027;-77
2023/10/05 13:59:40;;;;;;;14.60;2.50;;;;;;;;;;4992135;28;20069;-77
2023/10/05 14:02:07;;;;;;;8.65;2.25;;;;;;;;;;4992388;28;20034;-78
2023/10/05 14:04:37;;;;;;;14.50;3.70;;;;;;;;;;4994386;28;20052;-77
2023/10/05 14:07:07;;;;;;;9.52;2.20;;;;;;;;;;4993529;28;20070;-78
2023/10/05 14:09:44;;;;;;;8.65;2.78;;;;;;;;;;4994776;28;20042;-77
2023/10/05 14:12:10;;;;;;;6.97;1.98;;;;;;;;;;4993921;28;20542;-77
2023/10/05 14:14:36;;;;;;;12.50;2.60;;;;;;;;;;4994577;28;20034;-76
2023/10/05 14:17:06;;;;;;;10.48;2.50;;;;;;;;;;4995991;28;20092;-78
2023/10/05 14:19:33;;;;;;;7.63;2.28;;;;;;;;;;4996452;28;20441;-78
2023/10/05 14:22:00;;;;;;;7.38;2.63;;;;;;;;;;4993716;28;20379;-75
2023/10/05 14:24:26;;;;;;;8.82;2.17;;;;;;;;;;4992435;28;20040;-78
2023/10/05 14:26:54;;;;;;;7.25;2.15;;;;;;;;;;4960320;28;20042;-78
2023/10/05 14:29:22;;;;;;;12.15;2.10;;;;;;;;;;4994343;28;20018;-78
2023/10/05 14:31:52;;;;;;;11.63;2.42;;;;;;;;;;4993607;28;20034;-78
2023/10/05 14:34:18;;;;;;;7.38;2.13;;;;;;;;;;4993321;28;20065;-76
2023/10/05 14:36:44;;;;;;;13.75;2.70;;;;;;;;;;4992586;28;20038;-77
2023/10/05 14:39:21;;;;;;;9.95;3.05;;;;;;;;;;4977071;28;20034;-77
2023/10/05 14:41:48;;;;;;;9.20;2.60;;;;;;;;;;4994000;28;20037;-76
2023/10/05 14:44:14;;;;;;;9.35;2.60;;;;;;;;;;4994181;28;20030;-77
2023/10/05 14:46:39;;;;;;;7.65;2.90;;;;;;;;;;4994624;28;20030;-76
2023/10/05 14:49:07;;;;;;;13.25;3.30;;;;;;;;;;4997287;28;20447;-76
2023/10/05 14:51:34;;;;;;;8.93;2.58;;;;;;;;;;4997162;28;20037;-78
2023/10/05 14:54:00;;;;;;;7.53;2.42;;;;;;;;;;4997601;28;20050;-77
2023/10/05 14:56:26;;;;;;;8.15;2.72;;;;;;;;;;4997882;28;20045;-78
2023/10/05 14:58:52;;;;;;;6.65;2.42;;;;;;;;;;4997008;28;20117;-78
2023/10/05 15:01:19;;;;;;;7.25;2.65;;;;;;;;;;4995843;28;20065;-78
2023/10/05 15:03:45;;;;;;;11.27;2.78;;;;;;;;;;4993303;28;20506;-78
2023/10/05 15:06:11;;;;;;;8.80;2.85;;;;;;;;;;4994339;28;20061;-77